Have a Safe July 4th! 

Flight Track Log - Related Links

Times and Time Zones

All times are in EDT time to prevent confusion due to time zone crossing. See the N812NW flight status page for this flight to view local times or setup timezone preferences in your user account.

Time Position Orientation Groundspeed Altitude Reporting Facility
EDT Latitude Longitude Course Direction KTS MPH feet Rate Location/Type
Sun 08:14:37 PM 40.6210 -73.7860 210° Southwest 158 182 100  Level FlightAware ADS-B
Sun 08:15:02 PM 40.6050 -73.7970 208° Southwest 167 192 1,000 1,650 Climbing FlightAware ADS-B
Sun 08:15:17 PM 40.5940 -73.8010 195° South 180 207 1,200 800 Climbing FlightAware ADS-B
Sun 08:15:47 PM 40.5700 -73.7800 146° Southeast 217 250 1,600 1,200 Climbing FlightAware ADS-B
Sun 08:16:17 PM 40.5530 -73.7410 120° Southeast 250 288 2,400 2,182 Climbing FlightAware ADS-B
Sun 08:16:42 PM 40.5390 -73.7080 119° Southeast 254 292 3,600 2,073 Climbing FlightAware ADS-B
Sun 08:17:12 PM 40.5220 -73.6700 120° Southeast 255 293 4,300 800 Climbing FlightAware ADS-B
Sun 08:17:42 PM 40.5040 -73.6290 120° Southeast 257 296 4,400 128 Climbing FlightAware ADS-B
Sun 08:17:59 PM 40.4925 -73.6033 120° Southeast 257 296 4,400  Level FlightAware ADS-B
Sun 08:18:25 PM 40.4767 -73.5686 121° Southeast 259 298 4,400  Level FlightAware ADS-B
Sun 08:18:45 PM 40.4644 -73.5418 121° Southeast 257 296 4,400 448 Level FlightAware ADS-B
Sun 08:19:32 PM 40.4410 -73.4790 116° Southeast 249 287 4,900 1,000 Climbing FlightAware ADS-B
Sun 08:19:39 PM 40.4401 -73.4653 95° East 250 288 5,300 3,000 Climbing FlightAware ADS-B
Sun 08:19:58 PM 40.4372 -73.4360 97° East 255 293 6,200 2,769 Climbing FlightAware ADS-B
Sun 08:20:18 PM 40.4337 -73.4053 99° East 261 300 7,100 2,595 Climbing FlightAware ADS-B
Sun 08:20:35 PM 40.4306 -73.3788 99° East 266 306 7,800 2,250 Climbing FlightAware ADS-B
Sun 08:20:50 PM 40.4279 -73.3546 98° East 272 313 8,300 2,063 Climbing FlightAware ADS-B
Sun 08:21:07 PM 40.4247 -73.3258 98° East 280 322 8,900 2,364 Climbing FlightAware ADS-B
Sun 08:21:23 PM 40.4218 -73.2993 98° East 282 325 9,600 1,688 Climbing FlightAware ADS-B
Sun 08:21:39 PM 40.4187 -73.2715 98° East 300 345 9,800 913 Climbing FlightAware ADS-B
Sun 08:22:09 PM 40.4123 -73.2131 98° East 332 382 10,300 1,000 Climbing FlightAware ADS-B
Sun 08:22:39 PM 40.4051 -73.1479 98° East 365 420 10,800 1,500 Climbing FlightAware ADS-B
Sun 08:23:13 PM 40.3965 -73.0714 98° East 377 434 11,900 1,890 Climbing FlightAware ADS-B
Sun 08:23:52 PM 40.3880 -72.9890 98° East 391 450 13,100 1,932 Climbing FlightAware ADS-B
Sun 08:24:12 PM 40.3950 -72.9400 79° East 395 455 13,800 2,100 Climbing FlightAware ADS-B
Sun 08:24:32 PM 40.4076 -72.8888 72° East 391 450 14,500 1,846 Climbing FlightAware ADS-B
Sun 08:25:04 PM 40.4248 -72.8139 73° East 391 450 15,400 1,846 Climbing FlightAware ADS-B
Sun 08:25:11 PM 40.4288 -72.7958 74° East 413 475 15,700 1,950 Climbing FlightAware ADS-B
Sun 08:25:44 PM 40.4468 -72.7154 74° East 420 483 16,700 1,791 Climbing FlightAware ADS-B
Sun 08:26:18 PM 40.4654 -72.6318 74° East 421 484 17,700 1,569 Climbing FlightAware ADS-B
Sun 08:26:49 PM 40.4827 -72.5547 74° East 435 501 18,400 1,258 Climbing FlightAware ADS-B
Sun 08:27:20 PM 40.5005 -72.4745 74° East 449 517 19,000 1,292 Climbing FlightAware ADS-B
Sun 08:27:54 PM 40.5204 -72.3849 74° East 459 528 19,800 1,433 Climbing FlightAware ADS-B
Sun 08:28:27 PM 40.5400 -72.2960 74° East 464 534 20,600 1,459 Climbing FlightAware ADS-B
Sun 08:29:08 PM 40.5651 -72.1816 74° East 472 543 21,600 1,275 Climbing FlightAware ADS-B
Sun 08:29:47 PM 40.5870 -72.0800 74° East 481 554 22,300 1,139 Climbing FlightAware ADS-B
Sun 08:30:27 PM 40.6110 -71.9700 74° East 489 563 23,100 1,271 Climbing FlightAware ADS-B
Sun 08:31:12 PM 40.6400 -71.8370 74° East 495 570 24,100 1,360 Climbing FlightAware ADS-B
Sun 08:31:42 PM 40.6590 -71.7490 74° East 499 574 24,800 867 Climbing FlightAware ADS-B
Sun 08:32:42 PM 40.6960 -71.5780 74° East 503 579 25,400 327 Climbing FlightAware ADS-B
Sun 08:33:32 PM 40.7230 -71.4530 74° East 503 579 25,400 800 Level FlightAware ADS-B
Sun 08:34:12 PM 40.7530 -71.3080 75° East 525 604 26,600 900 Climbing FlightAware ADS-B
Sun 08:34:52 PM 40.7760 -71.2030 74° East 525 604 26,600  Level FlightAware ADS-B
Sun 08:35:32 PM 40.7990 -71.0980 74° East 525 604 26,600  Level FlightAware ADS-B
Sun 08:36:22 PM 40.8270 -70.9670 74° East 525 604 26,600 1,875 Level FlightAware ADS-B
Sun 08:36:52 PM 40.9100 -70.8400 49° Northeast 543 625 29,100 2,160 Climbing FlightAware ADS-B
Sun 08:37:37 PM 40.9790 -70.7290 51° Northeast 543 625 29,300 821 Climbing FlightAware ADS-B
Sun 08:38:27 PM 41.0610 -70.5960 51° Northeast 549 632 30,400 1,133 Climbing FlightAware ADS-B
Sun 08:39:07 PM 41.1300 -70.4840 51° Northeast 550 633 31,000 533 Climbing FlightAware ADS-B
Sun 08:39:57 PM 41.2070 -70.3580 51° Northeast 558 642 31,200 420 Climbing FlightAware ADS-B
Sun 08:40:47 PM 41.2890 -70.2240 51° Northeast 559 643 31,700 1,000 Climbing FlightAware ADS-B
Sun 08:41:27 PM 41.3550 -70.1150 51° Northeast 561 646 32,700 900 Climbing FlightAware ADS-B
Sun 08:42:07 PM 41.4220 -70.0050 51° Northeast 561 646 32,900 776 Climbing FlightAware ADS-B
Sun 08:42:52 PM 41.4970 -69.8800 51° Northeast 555 639 33,800 336 Climbing FlightAware ADS-B
Sun 08:44:30 PM 41.6300 -69.6520 52° Northeast 555 639 33,700 -43 Descending FlightAware ADS-B
Sun 08:45:10 PM 41.6840 -69.5600 52° Northeast 555 639 33,700  Level FlightAware ADS-B
Sun 08:45:50 PM 41.7370 -69.4680 52° Northeast 555 639 33,700 918 Level FlightAware ADS-B
Sun 08:46:35 PM 41.8610 -69.2690 50° Northeast 551 634 35,000 918 Climbing FlightAware ADS-B
Sun 08:47:15 PM 41.9290 -69.1540 51° Northeast 552 635 35,000  Level FlightAware ADS-B
Sun 08:47:55 PM 41.9900 -69.0490 52° Northeast 554 638 35,000  Level FlightAware ADS-B
Sun 08:48:35 PM 42.0570 -68.9360 51° Northeast 553 636 35,000  Level FlightAware ADS-B
Sun 08:49:20 PM 42.1290 -68.8120 52° Northeast 554 638 35,000  Level FlightAware ADS-B
Sun 08:50:05 PM 42.2000 -68.6900 52° Northeast 555 639 35,000  Level FlightAware ADS-B
Sun 08:51:00 PM 42.2840 -68.5440 52° Northeast 559 643 35,000  Level FlightAware ADS-B
Sun 08:51:45 PM 42.3600 -68.4110 52° Northeast 559 643 35,000  Level FlightAware ADS-B
Sun 08:52:25 PM 42.4180 -68.3100 52° Northeast 559 643 35,000  Level FlightAware ADS-B
Sun 08:53:05 PM 42.4870 -68.1880 52° Northeast 559 643 35,000  Level FlightAware ADS-B
Sun 08:53:50 PM 42.5520 -68.0730 52° Northeast 558 642 35,000  Level FlightAware ADS-B
Sun 08:54:40 PM 42.6300 -67.9380 52° Northeast 562 647 35,000  Level FlightAware ADS-B
Sun 08:55:20 PM 42.6840 -67.8430 52° Northeast 562 647 35,000  Level FlightAware ADS-B
Sun 08:55:50 PM 42.7250 -67.7720 52° Northeast 562 647 35,000  Level FlightAware ADS-B
Sun 08:56:30 PM 42.7790 -67.6770 52° Northeast 562 647 35,000  Level FlightAware ADS-B
Sun 08:57:20 PM 42.8470 -67.5590 52° Northeast 562 647 35,000  Level FlightAware ADS-B
Sun 08:58:00 PM 42.9020 -67.4640 52° Northeast 562 647 35,000  Level FlightAware ADS-B
Sun 08:58:40 PM 42.9560 -67.3680 52° Northeast 562 647 35,000  Level FlightAware ADS-B
Sun 08:59:25 PM 43.0800 -67.1270 55° Northeast 562 647 35,000  Level FlightAware ADS-B
Sun 09:00:30 PM 43.1810 -66.9390 54° Northeast 557 641 35,000  Level FlightAware ADS-B
Sun 09:01:10 PM 43.2330 -66.8420 54° Northeast 557 641 35,000  Level FlightAware ADS-B
Sun 09:02:00 PM 43.3060 -66.6650 60° Northeast 566 651 35,000  Level FlightAware ADS-B
Sun 09:02:35 PM 43.3540 -66.5620 57° Northeast 565 650 35,000  Level FlightAware ADS-B
Sun 09:03:25 PM 43.4250 -66.4080 58° Northeast 559 643 35,000  Level FlightAware ADS-B
Sun 09:04:05 PM 43.4810 -66.2850 58° Northeast 561 646 35,000  Level FlightAware ADS-B
Sun 09:04:45 PM 43.5360 -66.1660 57° Northeast 562 647 35,000  Level FlightAware ADS-B
Sun 09:05:30 PM 43.5990 -66.0270 58° Northeast 564 649 35,000  Level FlightAware ADS-B
Sun 09:06:10 PM 43.6560 -65.9020 58° Northeast 563 648 35,000  Level FlightAware ADS-B
Sun 09:06:55 PM 43.7190 -65.7610 58° Northeast 564 649 35,000  Level FlightAware ADS-B
Sun 09:07:35 PM 43.7750 -65.6360 58° Northeast 564 649 35,000  Level FlightAware ADS-B
Sun 09:08:20 PM 43.8380 -65.4960 58° Northeast 565 650 35,000  Level FlightAware ADS-B
Sun 09:09:00 PM 43.8940 -65.3690 59° Northeast 567 652 35,000  Level FlightAware ADS-B
Sun 09:09:35 PM 43.9420 -65.2620 58° Northeast 566 651 35,000  Level FlightAware ADS-B
Sun 09:10:15 PM 43.9980 -65.1350 58° Northeast 567 652 35,000  Level FlightAware ADS-B
Sun 09:10:55 PM 44.0520 -65.0120 59° Northeast 566 651 35,000  Level FlightAware ADS-B
Sun 09:11:40 PM 44.1130 -64.8730 59° Northeast 566 651 35,000  Level FlightAware ADS-B
Sun 09:12:20 PM 44.1660 -64.7510 59° Northeast 568 654 35,000  Level FlightAware ADS-B
Sun 09:13:05 PM 44.2290 -64.6040 59° Northeast 570 656 35,000  Level FlightAware ADS-B
Sun 09:13:45 PM 44.2850 -64.4750 59° Northeast 570 656 35,000  Level FlightAware ADS-B
Sun 09:14:30 PM 44.3460 -64.3330 59° Northeast 574 661 35,000  Level FlightAware ADS-B
Sun 09:15:10 PM 44.4000 -64.2080 59° Northeast 577 664 35,000  Level FlightAware ADS-B
Sun 09:15:50 PM 44.4570 -64.0730 59° Northeast 580 667 35,000  Level FlightAware ADS-B
Sun 09:16:35 PM 44.5170 -63.9310 59° Northeast 584 672 35,000  Level FlightAware ADS-B
Sun 09:17:15 PM 44.5710 -63.8020 60° Northeast 585 673 35,000  Level FlightAware ADS-B
Sun 09:18:00 PM 44.6330 -63.6540 59° Northeast 585 673 35,000  Level FlightAware ADS-B
Sun 09:18:35 PM 44.6820 -63.5380 59° Northeast 582 670 35,000  Level FlightAware ADS-B
Sun 09:19:20 PM 44.7420 -63.3930 60° Northeast 582 670 35,000  Level FlightAware ADS-B
Sun 09:20:05 PM 44.8010 -63.2490 60° Northeast 581 669 35,000  Level FlightAware ADS-B
Sun 09:20:45 PM 44.8590 -63.1090 60° Northeast 581 669 35,000  Level FlightAware ADS-B
Sun 09:21:20 PM 44.9020 -63.0040 60° Northeast 580 667 35,000  Level FlightAware ADS-B
Sun 09:22:05 PM 44.9540 -62.8760 60° Northeast 580 667 35,000  Level FlightAware ADS-B
Sun 09:22:45 PM 45.0000 -62.7640 60° Northeast 580 667 35,000  Level FlightAware ADS-B
Sun 09:23:35 PM 45.0570 -62.6240 60° Northeast 580 667 35,000  Level FlightAware ADS-B
Sun 09:24:15 PM 45.1020 -62.5120 60° Northeast 580 667 35,000  Level FlightAware ADS-B
Sun 09:24:55 PM 45.1480 -62.4000 60° Northeast 580 667 35,000  Level FlightAware ADS-B
Sun 09:25:35 PM 45.1930 -62.2880 60° Northeast 580 667 35,000  Level FlightAware ADS-B
Sun 09:26:15 PM 45.2390 -62.1760 60° Northeast 580 667 35,000  Level FlightAware ADS-B
Sun 09:27:05 PM 45.2960 -62.0360 60° Northeast 580 667 35,000  Level FlightAware ADS-B
Sun 09:27:45 PM 45.3420 -61.9230 60° Northeast 580 667 35,000  Level FlightAware ADS-B
Sun 09:28:25 PM 45.3870 -61.8110 60° Northeast 580 667 35,000  Level FlightAware ADS-B
Sun 09:29:05 PM 45.4330 -61.6980 60° Northeast 580 667 35,000  Level FlightAware ADS-B
Sun 09:29:45 PM 45.4780 -61.5860 60° Northeast 580 667 35,000  Level FlightAware ADS-B
Sun 09:30:35 PM 45.5350 -61.4450 60° Northeast 580 667 35,000  Level FlightAware ADS-B
Sun 09:31:15 PM 45.6870 -61.0130 63° Northeast 579 666 35,000  Level FlightAware ADS-B
Sun 09:32:00 PM 45.7450 -60.8580 62° Northeast 577 664 35,000  Level FlightAware ADS-B
Sun 09:32:40 PM 45.7930 -60.7310 62° Northeast 576 663 35,000  Level FlightAware ADS-B
Sun 09:33:20 PM 45.8470 -60.5880 61° Northeast 576 663 35,000  Level FlightAware ADS-B
Sun 09:34:05 PM 45.9020 -60.4400 62° Northeast 576 663 35,000  Level FlightAware ADS-B
Sun 09:34:45 PM 45.9520 -60.3040 62° Northeast 578 665 35,000  Level FlightAware ADS-B
Sun 09:35:30 PM 46.0100 -60.1490 62° Northeast 578 665 35,000  Level FlightAware ADS-B
Sun 09:36:10 PM 46.0600 -60.0120 62° Northeast 579 666 35,000  Level FlightAware ADS-B
Sun 09:36:50 PM 46.1100 -59.8760 62° Northeast 579 666 35,000  Level FlightAware ADS-B
Sun 09:37:35 PM 46.1630 -59.7280 63° Northeast 578 665 35,000  Level FlightAware ADS-B
Sun 09:38:15 PM 46.2130 -59.5920 62° Northeast 576 663 35,000  Level FlightAware ADS-B
Sun 09:39:00 PM 46.2700 -59.4330 63° Northeast 576 663 35,000  Level FlightAware ADS-B
Sun 09:39:40 PM 46.3180 -59.2970 63° Northeast 577 664 35,000  Level FlightAware ADS-B
Sun 09:40:25 PM 46.3730 -59.1440 62° Northeast 577 664 35,000  Level FlightAware ADS-B
Sun 09:41:05 PM 46.4210 -59.0090 63° Northeast 576 663 35,000  Level FlightAware ADS-B
Sun 09:41:45 PM 46.4690 -58.8710 63° Northeast 576 663 35,000  Level FlightAware ADS-B
Sun 09:42:30 PM 46.5250 -58.7110 63° Northeast 576 663 35,000  Level FlightAware ADS-B
Sun 09:43:10 PM 46.5740 -58.5720 63° Northeast 577 664 35,000  Level FlightAware ADS-B
Sun 09:43:55 PM 46.6250 -58.4240 63° Northeast 578 665 35,000  Level FlightAware ADS-B
Sun 09:44:35 PM 46.6730 -58.2840 63° Northeast 577 664 35,000  Level FlightAware ADS-B
Sun 09:45:15 PM 46.7210 -58.1440 63° Northeast 576 663 35,000  Level FlightAware ADS-B
Sun 09:46:00 PM 46.7750 -57.9850 64° Northeast 576 663 35,000  Level FlightAware ADS-B
Sun 09:46:55 PM 46.8350 -57.8110 63° Northeast 576 663 35,000  Level FlightAware ADS-B
Sun 09:47:35 PM 46.8760 -57.6930 63° Northeast 576 663 35,000  Level FlightAware ADS-B
Sun 09:48:15 PM 46.9170 -57.5740 63° Northeast 576 663 35,000  Level FlightAware ADS-B
Sun 09:48:55 PM 46.9580 -57.4560 63° Northeast 576 663 35,000  Level FlightAware ADS-B
Sun 09:49:45 PM 47.0100 -57.3080 63° Northeast 576 663 35,000 67 Level FlightAware ADS-B
Sun 09:50:25 PM 47.0780 -57.0700 67° East 578 665 35,100 80 Climbing FlightAware ADS-B
Sun 09:51:00 PM 47.1150 -56.9520 65° Northeast 578 665 35,100 780 Level FlightAware ADS-B
Sun 09:52:05 PM 47.1910 -56.7050 66° East 575 662 36,400 914 Climbing FlightAware ADS-B
Sun 09:52:45 PM 47.2340 -56.5670 65° Northeast 579 666 36,700 450 Climbing FlightAware ADS-B
Sun 09:53:25 PM 47.2800 -56.4170 66° East 580 667 37,000 212 Climbing FlightAware ADS-B
Sun 09:54:10 PM 47.3260 -56.2690 65° Northeast 581 669 37,000  Level FlightAware ADS-B
Sun 09:54:50 PM 47.3650 -56.1460 65° Northeast 581 669 37,000  Level FlightAware ADS-B
Sun 09:55:30 PM 47.4030 -56.0240 65° Northeast 581 669 37,000  Level FlightAware ADS-B
Sun 09:56:10 PM 47.4420 -55.9020 65° Northeast 581 669 37,000  Level FlightAware ADS-B
Sun 09:56:50 PM 47.4810 -55.7790 65° Northeast 581 669 37,000  Level FlightAware ADS-B
Sun 09:57:40 PM 47.5570 -55.4920 68° East 579 666 37,000  Level FlightAware ADS-B
Sun 09:58:20 PM 47.6010 -55.3440 66° East 579 666 37,000  Level FlightAware ADS-B
Sun 09:59:05 PM 47.6470 -55.1850 67° East 578 665 37,000  Level FlightAware ADS-B
Sun 09:59:45 PM 47.6890 -55.0410 67° East 578 665 37,000  Level FlightAware ADS-B
Sun 10:00:25 PM 47.7310 -54.8940 67° East 577 664 37,000  Level FlightAware ADS-B
Sun 10:00:55 PM 47.7620 -54.7860 67° East 577 664 37,000  Level FlightAware ADS-B
Sun 10:01:35 PM 47.8040 -54.6410 67° East 576 663 37,000  Level FlightAware ADS-B
Sun 10:02:20 PM 47.8520 -54.4710 67° East 578 665 37,000  Level FlightAware ADS-B
Sun 10:03:00 PM 47.8930 -54.3250 67° East 579 666 37,000  Level FlightAware ADS-B
Sun 10:03:40 PM 47.9340 -54.1780 67° East 577 664 37,000  Level FlightAware ADS-B
Sun 10:04:25 PM 47.9800 -54.0140 67° East 576 663 37,000  Level FlightAware ADS-B
Sun 10:05:05 PM 48.0190 -53.8720 68° East 573 659 37,000  Level FlightAware ADS-B
Sun 10:05:50 PM 48.0660 -53.7010 68° East 573 659 37,000  Level FlightAware ADS-B
Sun 10:06:30 PM 48.1050 -53.5570 68° East 573 659 37,000  Level FlightAware ADS-B
Sun 10:07:15 PM 48.1490 -53.3940 68° East 568 654 37,000  Level FlightAware ADS-B
Sun 10:07:55 PM 48.1880 -53.2480 68° East 567 652 37,000  Level FlightAware ADS-B
Sun 10:08:35 PM 48.2260 -53.1050 68° East 568 654 37,000  Level FlightAware ADS-B
Sun 10:09:20 PM 48.2720 -52.9350 68° East 567 652 37,000  Level FlightAware ADS-B
Sun 10:10:00 PM 48.3100 -52.7880 69° East 568 654 37,000  Level FlightAware ADS-B
Sun 10:10:40 PM 48.3480 -52.6440 68° East 570 656 37,000  Level FlightAware ADS-B
Sun 10:11:25 PM 48.3910 -52.4780 69° East 570 656 37,000  Level FlightAware ADS-B
Sun 10:12:05 PM 48.4290 -52.3330 68° East 573 659 37,000  Level FlightAware ADS-B
Sun 10:12:50 PM 48.4730 -52.1610 69° East 576 663 37,000  Level FlightAware ADS-B
Sun 10:13:45 PM 48.5260 -51.9550 69° East 574 661 37,000  Level FlightAware ADS-B
Sun 10:14:30 PM 48.5690 -51.7840 69° East 573 659 37,000  Level FlightAware ADS-B
Sun 10:15:40 PM 48.6340 -51.5240 69° East 575 662 37,000  Level FlightAware ADS-B
Sun 10:16:50 PM 48.6920 -51.2850 70° East 574 661 37,000  Level FlightAware ADS-B
Sun 10:17:30 PM 48.7330 -51.1190 69° East 572 658 37,000  Level FlightAware ADS-B
Sun 10:18:25 PM 48.7840 -50.9130 69° East 573 659 37,000  Level FlightAware ADS-B
Sun 10:19:05 PM 48.8210 -50.7590 70° East 574 661 37,000  Level FlightAware ADS-B
Sun 10:19:50 PM 48.8600 -50.5950 70° East 573 659 37,000  Level FlightAware ADS-B
Sun 10:20:45 PM 48.9090 -50.3860 70° East 572 658 37,000  Level FlightAware ADS-B
Sun 10:21:25 PM 48.9450 -50.2340 70° East 571 657 37,000  Level FlightAware ADS-B
Sun 10:22:10 PM 48.9850 -50.0650 70° East 571 657 37,000  Level FlightAware ADS-B
Sun 10:22:50 PM 49.0160 -49.9360 70° East 571 657 37,000  Level FlightAware ADS-B
Sun 10:23:30 PM 49.0470 -49.8080 70° East 571 657 37,000  Level FlightAware ADS-B
Sun 10:24:10 PM 49.0770 -49.6790 70° East 571 657 37,000  Level FlightAware ADS-B
Sun 10:24:50 PM 49.1080 -49.5500 70° East 571 657 37,000  Level FlightAware ADS-B
Sun 10:25:40 PM 49.1460 -49.3890 70° East 571 657 37,000  Level FlightAware ADS-B
Sun 10:26:20 PM 49.1770 -49.2600 70° East 571 657 37,000  Level FlightAware ADS-B
Sun 10:27:00 PM 49.2080 -49.1300 70° East 571 657 37,000  Level FlightAware ADS-B
Sun 10:27:40 PM 49.2380 -49.0010 70° East 571 657 37,000  Level FlightAware ADS-B
Sun 10:28:30 PM 49.2770 -48.8400 70° East 571 657 37,000  Level FlightAware ADS-B
Sun 10:29:10 PM 49.3080 -48.7100 70° East 571 657 37,000  Level FlightAware ADS-B
Sun 10:29:50 PM 49.3380 -48.5810 70° East 571 657 37,000  Level FlightAware ADS-B
Sun 10:30:30 PM 49.3690 -48.4510 70° East 571 657 37,000  Level FlightAware ADS-B
Sun 10:31:10 PM 49.4000 -48.3210 70° East 571 657 37,000  Level FlightAware ADS-B
Sun 10:32:01 PM 49.5000 -47.7667 70° East 570 656 37,000  Level Gander Center
Sun 10:32:24 PM 49.5333 -47.6833 58° Northeast 560 644 37,000  Level Gander Center
Sun 10:33:01 PM 49.5667 -47.5167 73° East 560 644 37,000  Level Gander Center
Sun 10:34:01 PM 49.6000 -47.3167 76° East 560 644 37,000  Level Gander Center
Sun 10:34:24 PM 49.6333 -47.2333 58° Northeast 560 644 37,000 11 Level Gander Center
Sun 10:37:00 PM 49.7243 -46.8270 71° East  Level FlightAware Approximate
Sun 10:44:00 PM 50.0340 -45.3811 71° East  Level FlightAware Approximate
Sun 10:45:00 PM 50.0768 -45.1730 72° East  Level FlightAware Approximate
Sun 10:46:00 PM 50.1192 -44.9646 72° East  Level FlightAware Approximate
Sun 10:47:00 PM 50.1612 -44.7558 72° East  Level FlightAware Approximate
Sun 10:48:00 PM 50.2029 -44.5466 73° East  Level FlightAware Approximate
Sun 10:49:00 PM 50.2441 -44.3371 73° East  Level FlightAware Approximate
Sun 10:50:00 PM 50.2850 -44.1272 73° East  Level FlightAware Approximate
Sun 10:51:00 PM 50.3255 -43.9170 73° East  Level FlightAware Approximate
Sun 10:52:00 PM 50.3657 -43.7063 73° East  Level FlightAware Approximate
Sun 10:53:00 PM 50.4054 -43.4954 73° East  Level FlightAware Approximate
Sun 10:54:00 PM 50.4448 -43.2841 74° East  Level FlightAware Approximate
Sun 10:55:00 PM 50.4838 -43.0724 74° East  Level FlightAware Approximate
Sun 10:56:00 PM 50.5224 -42.8604 74° East  Level FlightAware Approximate
Sun 10:57:00 PM 50.5606 -42.6480 74° East  Level FlightAware Approximate
Sun 10:58:00 PM 50.5984 -42.4353 74° East  Level FlightAware Approximate
Sun 10:59:00 PM 50.6358 -42.2223 74° East  Level FlightAware Approximate
Sun 11:00:00 PM 50.6729 -42.0089 75° East  Level FlightAware Approximate
Sun 11:01:00 PM 50.7096 -41.7952 75° East  Level FlightAware Approximate
Sun 11:02:00 PM 50.7458 -41.5811 75° East  Level FlightAware Approximate
Sun 11:03:00 PM 50.7817 -41.3667 75° East  Level FlightAware Approximate
Sun 11:04:00 PM 50.8172 -41.1520 75° East  Level FlightAware Approximate
Sun 11:05:00 PM 50.8523 -40.9370 75° East  Level FlightAware Approximate
Sun 11:06:00 PM 50.8870 -40.7216 76° East  Level FlightAware Approximate
Sun 11:07:00 PM 50.9213 -40.5060 76° East  Level FlightAware Approximate
Sun 11:08:00 PM 50.9552 -40.2900 76° East  Level FlightAware Approximate
Sun 11:09:00 PM 50.9887 -40.0737 76° East  Level FlightAware Approximate
Sun 11:10:00 PM 51.0062 -39.8531 86° East  Level FlightAware Approximate
Sun 11:11:00 PM 51.0152 -39.6307 86° East  Level FlightAware Approximate
Sun 11:12:00 PM 51.0238 -39.4081 86° East  Level FlightAware Approximate
Sun 11:13:00 PM 51.0320 -39.1855 87° East  Level FlightAware Approximate
Sun 11:14:00 PM 51.0397 -38.9627 87° East  Level FlightAware Approximate
Sun 11:15:00 PM 51.0471 -38.7399 87° East  Level FlightAware Approximate
Sun 11:16:00 PM 51.0540 -38.5171 87° East  Level FlightAware Approximate
Sun 11:17:00 PM 51.0605 -38.2942 87° East  Level FlightAware Approximate
Sun 11:18:00 PM 51.0665 -38.0712 87° East  Level FlightAware Approximate
Sun 11:19:00 PM 51.0722 -37.8481 88° East  Level FlightAware Approximate
Sun 11:20:00 PM 51.0774 -37.6251 88° East  Level FlightAware Approximate
Sun 11:21:00 PM 51.0822 -37.4019 88° East  Level FlightAware Approximate
Sun 11:22:00 PM 51.0865 -37.1787 88° East  Level FlightAware Approximate
Sun 11:23:00 PM 51.0905 -36.9555 88° East  Level FlightAware Approximate
Sun 11:24:00 PM 51.0940 -36.7323 88° East  Level FlightAware Approximate
Sun 11:25:00 PM 51.0971 -36.5090 89° East  Level FlightAware Approximate
Sun 11:26:00 PM 51.0997 -36.2856 89° East  Level FlightAware Approximate
Sun 11:27:00 PM 51.1020 -36.0623 89° East  Level FlightAware Approximate
Sun 11:28:00 PM 51.1038 -35.8390 89° East  Level FlightAware Approximate
Sun 11:29:00 PM 51.1052 -35.6156 89° East  Level FlightAware Approximate
Sun 11:30:00 PM 51.1061 -35.3922 90° East  Level FlightAware Approximate
Sun 11:31:00 PM 51.1067 -35.1688 90° East  Level FlightAware Approximate
Sun 11:32:00 PM 51.1068 -34.9454 90° East  Level FlightAware Approximate
Sun 11:33:00 PM 51.1065 -34.7220 90° East  Level FlightAware Approximate
Sun 11:34:00 PM 51.1057 -34.4986 90° East  Level FlightAware Approximate
Sun 11:35:00 PM 51.1045 -34.2752 90° East  Level FlightAware Approximate
Sun 11:36:00 PM 51.1030 -34.0518 91° East  Level FlightAware Approximate
Sun 11:37:00 PM 51.1009 -33.8285 91° East  Level FlightAware Approximate
Sun 11:38:00 PM 51.0985 -33.6052 91° East  Level FlightAware Approximate
Sun 11:39:00 PM 51.0956 -33.3819 91° East  Level FlightAware Approximate
Sun 11:40:00 PM 51.0923 -33.1586 91° East  Level FlightAware Approximate
Sun 11:41:00 PM 51.0886 -32.9353 91° East  Level FlightAware Approximate
Sun 11:42:00 PM 51.0845 -32.7121 92° East  Level FlightAware Approximate
Sun 11:43:00 PM 51.0799 -32.4890 92° East  Level FlightAware Approximate
Sun 11:44:00 PM 51.0749 -32.2659 92° East  Level FlightAware Approximate
Sun 11:45:00 PM 51.0695 -32.0428 92° East  Level FlightAware Approximate
Sun 11:46:00 PM 51.0636 -31.8198 92° East  Level FlightAware Approximate
Sun 11:47:00 PM 51.0574 -31.5968 92° East  Level FlightAware Approximate
Sun 11:48:00 PM 51.0507 -31.3739 93° East  Level FlightAware Approximate
Sun 11:49:00 PM 51.0435 -31.1511 93° East  Level FlightAware Approximate
Sun 11:50:00 PM 51.0360 -30.9284 93° East  Level FlightAware Approximate
Sun 11:51:00 PM 51.0280 -30.7057 93° East  Level FlightAware Approximate
Sun 11:52:00 PM 51.0197 -30.4831 93° East  Level FlightAware Approximate
Sun 11:53:00 PM 51.0108 -30.2606 94° East  Level FlightAware Approximate
Sun 11:54:00 PM 51.0016 -30.0381 94° East  Level FlightAware Approximate
Sun 11:55:00 PM 50.9896 -29.8161 95° East  Level FlightAware Approximate
Sun 11:56:00 PM 50.9767 -29.5942 95° East  Level FlightAware Approximate
Sun 11:57:00 PM 50.9634 -29.3725 95° East  Level FlightAware Approximate
Sun 11:58:00 PM 50.9496 -29.1509 96° East  Level FlightAware Approximate
Sun 11:59:00 PM 50.9355 -28.9294 96° East  Level FlightAware Approximate
Mon 12:00:00 AM 50.9209 -28.7080 96° East  Level FlightAware Approximate
Mon 12:01:00 AM 50.9059 -28.4869 96° East  Level FlightAware Approximate
Mon 12:02:00 AM 50.8905 -28.2658 96° East  Level FlightAware Approximate
Mon 12:03:00 AM 50.8746 -28.0449 96° East  Level FlightAware Approximate
Mon 12:04:00 AM 50.8584 -27.8242 97° East  Level FlightAware Approximate
Mon 12:05:00 AM 50.8417 -27.6036 97° East  Level FlightAware Approximate
Mon 12:06:00 AM 50.8246 -27.3831 97° East  Level FlightAware Approximate
Mon 12:07:00 AM 50.8071 -27.1629 97° East  Level FlightAware Approximate
Mon 12:08:00 AM 50.7892 -26.9428 97° East  Level FlightAware Approximate
Mon 12:09:00 AM 50.7709 -26.7228 97° East  Level FlightAware Approximate
Mon 12:10:00 AM 50.7522 -26.5031 98° East  Level FlightAware Approximate
Mon 12:11:00 AM 50.7330 -26.2835 98° East  Level FlightAware Approximate
Mon 12:12:00 AM 50.7135 -26.0641 98° East  Level FlightAware Approximate
Mon 12:13:00 AM 50.6935 -25.8449 98° East  Level FlightAware Approximate
Mon 12:14:00 AM 50.6731 -25.6259 98° East  Level FlightAware Approximate
Mon 12:15:00 AM 50.6523 -25.4070 98° East  Level FlightAware Approximate
Mon 12:16:00 AM 50.6311 -25.1884 99° East  Level FlightAware Approximate
Mon 12:17:00 AM 50.6095 -24.9699 99° East  Level FlightAware Approximate
Mon 12:18:00 AM 50.5874 -24.7517 99° East  Level FlightAware Approximate
Mon 12:19:00 AM 50.5650 -24.5337 99° East  Level FlightAware Approximate
Mon 12:20:00 AM 50.5422 -24.3158 99° East  Level FlightAware Approximate
Mon 12:21:00 AM 50.5189 -24.0982 99° East  Level FlightAware Approximate
Mon 12:22:00 AM 50.4953 -23.8808 100° East  Level FlightAware Approximate
Mon 12:23:00 AM 50.4712 -23.6637 100° East  Level FlightAware Approximate
Mon 12:24:00 AM 50.4468 -23.4467 100° East  Level FlightAware Approximate
Mon 12:25:00 AM 50.4219 -23.2300 100° East  Level FlightAware Approximate
Mon 12:26:00 AM 50.3966 -23.0135 100° East  Level FlightAware Approximate
Mon 12:27:00 AM 50.3710 -22.7972 100° East  Level FlightAware Approximate
Mon 12:28:00 AM 50.3449 -22.5812 101° East  Level FlightAware Approximate
Mon 12:29:00 AM 50.3185 -22.3654 101° East  Level FlightAware Approximate
Mon 12:30:00 AM 50.2916 -22.1499 101° East  Level FlightAware Approximate
Mon 12:31:00 AM 50.2644 -21.9346 101° East  Level FlightAware Approximate
Mon 12:32:00 AM 50.2367 -21.7195 101° East  Level FlightAware Approximate
Mon 12:33:00 AM 50.2086 -21.5047 101° East  Level FlightAware Approximate
Mon 12:34:00 AM 50.1802 -21.2902 102° East  Level FlightAware Approximate
Mon 12:35:00 AM 50.1513 -21.0759 102° East  Level FlightAware Approximate
Mon 12:36:00 AM 50.1221 -20.8619 102° East  Level FlightAware Approximate
Mon 12:37:00 AM 50.0925 -20.6481 102° East  Level FlightAware Approximate
Mon 12:38:00 AM 50.0624 -20.4346 102° East  Level FlightAware Approximate
Mon 12:39:00 AM 50.0320 -20.2213 102° East  Level FlightAware Approximate
Mon 12:40:00 AM 50.0012 -20.0084 103° East  Level FlightAware Approximate
Mon 12:41:00 AM 49.9337 -19.8176 119° Southeast  Level FlightAware Approximate
Mon 12:42:00 AM 49.8643 -19.6284 120° Southeast  Level FlightAware Approximate
Mon 12:43:00 AM 49.7946 -19.4396 120° Southeast  Level FlightAware Approximate
Mon 12:44:00 AM 49.7247 -19.2514 120° Southeast  Level FlightAware Approximate
Mon 12:45:00 AM 49.6544 -19.0638 120° Southeast  Level FlightAware Approximate
Mon 12:46:00 AM 49.5838 -18.8767 120° Southeast  Level FlightAware Approximate
Mon 12:47:00 AM 49.5129 -18.6902 121° Southeast  Level FlightAware Approximate
Mon 12:48:00 AM 49.4411 -18.5047 121° Southeast  Level FlightAware Approximate
Mon 12:49:00 AM 49.3691 -18.3197 121° Southeast  Level FlightAware Approximate
Mon 12:50:00 AM 49.2967 -18.1353 121° Southeast  Level FlightAware Approximate
Mon 12:51:00 AM 49.2241 -17.9515 121° Southeast  Level FlightAware Approximate
Mon 12:52:00 AM 49.1512 -17.7682 121° Southeast  Level FlightAware Approximate
Mon 12:53:00 AM 49.0779 -17.5854 121° Southeast  Level FlightAware Approximate
Mon 12:54:00 AM 49.0046 -17.4030 121° Southeast  Level FlightAware Approximate
Mon 12:55:00 AM 48.9314 -17.2207 121° Southeast  Level FlightAware Approximate
Mon 12:56:00 AM 48.8581 -17.0389 121° Southeast  Level FlightAware Approximate
Mon 12:57:00 AM 48.7844 -16.8576 122° Southeast  Level FlightAware Approximate
Mon 12:58:00 AM 48.7104 -16.6768 122° Southeast  Level FlightAware Approximate
Mon 12:59:00 AM 48.6362 -16.4966 122° Southeast  Level FlightAware Approximate
Mon 01:00:00 AM 48.5616 -16.3169 122° Southeast  Level FlightAware Approximate
Mon 01:01:00 AM 48.4868 -16.1378 122° Southeast  Level FlightAware Approximate
Mon 01:02:00 AM 48.4118 -15.9591 122° Southeast  Level FlightAware Approximate
Mon 01:03:00 AM 48.3364 -15.7810 122° Southeast  Level FlightAware Approximate
Mon 01:04:00 AM 48.2608 -15.6035 123° Southeast  Level FlightAware Approximate
Mon 01:05:00 AM 48.1849 -15.4264 123° Southeast  Level FlightAware Approximate
Mon 01:06:00 AM 48.1087 -15.2499 123° Southeast  Level FlightAware Approximate
Mon 01:07:00 AM 48.0322 -15.0739 123° Southeast  Level FlightAware Approximate
Mon 01:08:00 AM 47.9547 -14.9008 124° Southeast  Level FlightAware Approximate
Mon 01:09:00 AM 47.8760 -14.7291 124° Southeast  Level FlightAware Approximate
Mon 01:10:00 AM 47.7971 -14.5580 124° Southeast  Level FlightAware Approximate
Mon 01:11:00 AM 47.7178 -14.3873 125° Southeast  Level FlightAware Approximate
Mon 01:12:00 AM 47.6384 -14.2172 125° Southeast  Level FlightAware Approximate
Mon 01:13:00 AM 47.5590 -14.0473 124° Southeast  Level FlightAware Approximate
Mon 01:14:00 AM 47.4801 -13.8772 124° Southeast  Level FlightAware Approximate
Mon 01:15:00 AM 47.4009 -13.7075 125° Southeast  Level FlightAware Approximate
Mon 01:16:00 AM 47.3215 -13.5384 125° Southeast  Level FlightAware Approximate
Mon 01:17:00 AM 47.2418 -13.3698 125° Southeast  Level FlightAware Approximate
Mon 01:18:00 AM 47.1619 -13.2016 125° Southeast  Level FlightAware Approximate
Mon 01:19:00 AM 47.0817 -13.0340 125° Southeast  Level FlightAware Approximate
Mon 01:20:00 AM 47.0014 -12.8669 125° Southeast  Level FlightAware Approximate
Mon 01:21:00 AM 46.9207 -12.7003 125° Southeast  Level FlightAware Approximate
Mon 01:22:00 AM 46.8398 -12.5342 125° Southeast  Level FlightAware Approximate
Mon 01:23:00 AM 46.7587 -12.3686 126° Southeast  Level FlightAware Approximate
Mon 01:24:00 AM 46.6773 -12.2035 126° Southeast  Level FlightAware Approximate
Mon 01:25:00 AM 46.5957 -12.0389 126° Southeast  Level FlightAware Approximate
Mon 01:26:00 AM 46.5139 -11.8748 126° Southeast  Level FlightAware Approximate
Mon 01:27:00 AM 46.4318 -11.7112 126° Southeast  Level FlightAware Approximate
Mon 01:28:00 AM 46.3495 -11.5481 126° Southeast  Level FlightAware Approximate
Mon 01:29:00 AM 46.2670 -11.3854 126° Southeast  Level FlightAware Approximate
Mon 01:30:00 AM 46.1842 -11.2233 126° Southeast  Level FlightAware Approximate
Mon 01:30:55 AM 45.9040 -10.6880 126° Southeast 486 559 39,000  Level FlightAware ADS-B
Mon 01:31:00 AM 46.1012 -11.0617 126° Southeast  Level FlightAware Approximate
Mon 01:31:50 AM 45.8330 -10.5500 126° Southeast 485 558 39,000  Level FlightAware ADS-B
Mon 01:33:15 AM 45.7150 -10.3260 127° Southeast 486 559 39,000  Level FlightAware ADS-B
Mon 01:33:55 AM 45.6610 -10.2240 127° Southeast 485 558 39,000  Level FlightAware ADS-B
Mon 01:34:40 AM 45.6030 -10.1140 127° Southeast 483 556 39,000  Level FlightAware ADS-B
Mon 01:35:20 AM 45.5560 -10.0270 128° Southeast 482 555 39,000  Level FlightAware ADS-B
Mon 01:36:05 AM 45.4890 -9.9000 127° Southeast 483 556 39,000  Level FlightAware ADS-B
Mon 01:36:45 AM 45.4320 -9.7950 128° Southeast 483 556 39,000  Level FlightAware ADS-B
Mon 01:37:20 AM 45.3850 -9.7070 127° Southeast 485 558 39,000  Level FlightAware ADS-B
Mon 01:38:50 AM 45.2620 -9.4780 127° Southeast 482 555 39,000  Level FlightAware ADS-B
Mon 01:39:25 AM 45.2160 -9.3940 128° Southeast 480 552 39,000  Level FlightAware ADS-B
Mon 01:40:25 AM 45.1370 -9.2480 127° Southeast 481 554 39,000  Level FlightAware ADS-B
Mon 01:41:05 AM 45.0950 -9.1720 128° Southeast 483 556 39,000  Level FlightAware ADS-B
Mon 01:41:45 AM 45.0290 -9.0530 128° Southeast 484 557 39,000  Level FlightAware ADS-B
Mon 01:42:35 AM 44.9590 -8.9140 125° Southeast 484 557 39,000  Level FlightAware ADS-B
Mon 01:43:15 AM 44.9240 -8.8340 122° Southeast 486 559 39,000  Level FlightAware ADS-B
Mon 01:44:00 AM 44.8590 -8.6940 123° Southeast 488 562 39,000  Level FlightAware ADS-B
Mon 01:44:40 AM 44.8080 -8.5830 123° Southeast 490 564 39,000  Level FlightAware ADS-B
Mon 01:45:20 AM 44.7570 -8.4730 123° Southeast 489 563 39,000 462 Level FlightAware ADS-B
Mon 01:46:50 AM 44.6470 -8.2390 123° Southeast 472 543 40,000 462 Climbing FlightAware ADS-B
Mon 01:47:30 AM 44.5980 -8.1340 123° Southeast 474 545 40,000  Level FlightAware ADS-B
Mon 01:48:55 AM 44.4980 -7.9230 124° Southeast 472 543 40,000  Level FlightAware ADS-B
Mon 01:49:35 AM 44.4500 -7.8210 123° Southeast 471 542 40,000  Level FlightAware ADS-B
Mon 01:50:15 AM 44.3970 -7.7110 124° Southeast 472 543 40,000  Level FlightAware ADS-B
Mon 01:50:55 AM 44.3480 -7.6100 124° Southeast 472 543 40,000  Level FlightAware ADS-B
Mon 01:51:40 AM 44.2950 -7.4990 124° Southeast 472 543 40,000  Level FlightAware ADS-B
Mon 01:52:20 AM 44.2460 -7.3990 124° Southeast 472 543 40,000  Level FlightAware ADS-B
Mon 01:53:05 AM 44.1900 -7.2810 123° Southeast 474 545 40,000  Level FlightAware ADS-B
Mon 01:53:50 AM 44.1380 -7.1760 125° Southeast 473 544 40,000  Level FlightAware ADS-B
Mon 01:54:30 AM 44.0870 -7.0700 124° Southeast 473 544 40,000  Level FlightAware ADS-B
Mon 01:55:10 AM 44.0380 -6.9700 124° Southeast 473 544 40,000  Level FlightAware ADS-B
Mon 01:55:55 AM 43.9850 -6.8620 124° Southeast 474 545 40,000  Level FlightAware ADS-B
Mon 01:56:35 AM 43.9340 -6.7600 125° Southeast 476 548 40,000  Level FlightAware ADS-B
Mon 01:57:15 AM 43.8810 -6.6520 124° Southeast 476 548 40,000  Level FlightAware ADS-B
Mon 01:58:50 AM 43.7620 -6.4150 125° Southeast 476 548 40,000  Level FlightAware ADS-B
Mon 01:59:35 AM 43.7060 -6.3020 124° Southeast 474 545 40,000  Level FlightAware ADS-B
Mon 02:00:20 AM 43.6530 -6.1960 125° Southeast 474 545 40,000  Level FlightAware ADS-B
Mon 02:01:00 AM 43.6050 -6.0910 122° Southeast 461 531 40,000  Level FlightAware ADS-B
Mon 02:01:45 AM 43.5690 -5.9710 112° Southeast 446 513 40,000  Level FlightAware ADS-B
Mon 02:02:25 AM 43.5490 -5.8630 104° East 436 502 40,000  Level FlightAware ADS-B
Mon 02:03:10 AM 43.5390 -5.7450 97° East 428 493 40,000  Level FlightAware ADS-B
Mon 02:03:50 AM 43.5320 -5.6410 95° East 427 491 40,000  Level FlightAware ADS-B
Mon 02:06:00 AM 43.4339 -5.2462 109° East  Level Estimated
Mon 02:06:50 AM 43.4950 -5.1460 109° East 427 491 40,000  Level FlightAware ADS-B
Mon 02:07:35 AM 43.4860 -5.0250 96° East 427 491 40,000  Level FlightAware ADS-B
Mon 02:08:15 AM 43.4770 -4.9190 97° East 426 490 40,000  Level FlightAware ADS-B
Mon 02:08:55 AM 43.4690 -4.8100 96° East 426 490 40,000  Level FlightAware ADS-B
Mon 02:09:40 AM 43.4590 -4.6900 97° East 425 489 40,000  Level FlightAware ADS-B
Mon 02:10:20 AM 43.4500 -4.5810 96° East 426 490 40,000  Level FlightAware ADS-B
Mon 02:11:05 AM 43.4410 -4.4650 96° East 426 490 40,000  Level FlightAware ADS-B
Mon 02:11:45 AM 43.4310 -4.3530 97° East 426 490 40,000  Level FlightAware ADS-B
Mon 02:12:25 AM 43.4230 -4.2460 96° East 428 493 40,000  Level FlightAware ADS-B
Mon 02:13:10 AM 43.4120 -4.1270 97° East 428 493 40,000  Level FlightAware ADS-B
Mon 02:13:50 AM 43.4030 -4.0220 97° East 424 488 40,000  Level FlightAware ADS-B
Mon 02:14:30 AM 43.3940 -3.9120 96° East 423 487 40,000  Level FlightAware ADS-B
Mon 02:15:15 AM 43.3840 -3.7960 97° East 423 487 40,000  Level FlightAware ADS-B
Mon 02:15:50 AM 43.3750 -3.7030 98° East 423 487 40,000  Level FlightAware ADS-B
Mon 02:16:35 AM 43.3660 -3.5960 97° East 423 487 40,000  Level FlightAware ADS-B
Mon 02:17:30 AM 43.3510 -3.4350 97° East 426 490 40,000  Level FlightAware ADS-B
Mon 02:18:10 AM 43.3420 -3.3350 97° East 426 490 40,000  Level FlightAware ADS-B
Mon 02:19:00 AM 43.3290 -3.1950 97° East 430 495 40,000  Level FlightAware ADS-B
Mon 02:19:30 AM 43.3200 -3.1050 98° East 436 502 40,000  Level FlightAware ADS-B
Mon 02:20:20 AM 43.2980 -2.9740 103° East 454 522 40,000  Level FlightAware ADS-B
Mon 02:21:05 AM 43.2620 -2.8520 112° Southeast 472 543 40,000  Level FlightAware ADS-B
Mon 02:21:40 AM 43.2250 -2.7650 120° Southeast 484 557 40,000  Level FlightAware ADS-B
Mon 02:22:30 AM 43.1660 -2.6330 121° Southeast 480 552 40,000  Level FlightAware ADS-B
Mon 02:23:10 AM 43.1180 -2.5280 122° Southeast 481 554 40,000 -150 Level FlightAware ADS-B
Mon 02:23:50 AM 43.0660 -2.4150 122° Southeast 484 557 39,800 -847 Descending FlightAware ADS-B
Mon 02:24:35 AM 43.0170 -2.3080 122° Southeast 471 542 38,800 -1,200 Descending FlightAware ADS-B
Mon 02:25:15 AM 42.9740 -2.2160 123° Southeast 467 537 38,100 -565 Descending FlightAware ADS-B
Mon 02:26:00 AM 42.9220 -2.1030 122° Southeast 475 547 38,000 -71 Descending FlightAware ADS-B
Mon 02:26:40 AM 42.8730 -1.9970 122° Southeast 480 552 38,000  Level FlightAware ADS-B
Mon 02:27:35 AM 42.8110 -1.8660 123° Southeast 479 551 38,000  Level FlightAware ADS-B
Mon 02:28:20 AM 42.7490 -1.7340 123° Southeast 478 550 38,000  Level FlightAware ADS-B
Mon 02:29:00 AM 42.7090 -1.6340 119° Southeast 466 536 38,000  Level FlightAware ADS-B
Mon 02:29:45 AM 42.6680 -1.5150 115° Southeast 470 541 38,000  Level FlightAware ADS-B
Mon 02:30:25 AM 42.6300 -1.4080 116° Southeast 475 547 38,000  Level FlightAware ADS-B
Mon 02:31:05 AM 42.5950 -1.3090 116° Southeast 478 550 38,000 -212 Level FlightAware ADS-B
Mon 02:31:50 AM 42.5500 -1.1810 115° Southeast 482 555 37,700 -706 Descending FlightAware ADS-B
Mon 02:32:30 AM 42.5080 -1.0640 116° Southeast 473 544 37,000 -975 Descending FlightAware ADS-B
Mon 02:33:10 AM 42.4700 -0.9580 116° Southeast 470 541 36,400 -988 Descending FlightAware ADS-B
Mon 02:33:55 AM 42.4280 -0.8420 116° Southeast 470 541 35,600 -988 Descending FlightAware ADS-B
Mon 02:34:35 AM 42.3900 -0.7350 116° Southeast 472 543 35,000 -988 Descending FlightAware ADS-B
Mon 02:35:20 AM 42.3460 -0.6140 116° Southeast 476 548 34,200 -988 Descending FlightAware ADS-B
Mon 02:36:00 AM 42.3080 -0.5100 116° Southeast 478 550 33,600 -900 Descending FlightAware ADS-B
Mon 02:36:40 AM 42.2690 -0.4030 116° Southeast 484 557 33,000 -988 Descending FlightAware ADS-B
Mon 02:37:25 AM 42.2210 -0.2750 117° Southeast 482 555 32,200 -1,059 Descending FlightAware ADS-B
Mon 02:38:05 AM 42.1820 -0.1660 116° Southeast 490 564 31,500 -975 Descending FlightAware ADS-B
Mon 02:38:45 AM 42.1410 -0.0580 117° Southeast 482 555 30,900 -918 Descending FlightAware ADS-B
Mon 02:39:30 AM 42.0970 0.0610 116° Southeast 478 550 30,200 -988 Descending FlightAware ADS-B
Mon 02:40:10 AM 42.0580 0.1650 117° Southeast 476 548 29,500 -1,059 Descending FlightAware ADS-B
Mon 02:40:55 AM 42.0120 0.2870 117° Southeast 466 536 28,700 -1,200 Descending FlightAware ADS-B
Mon 02:41:35 AM 41.9770 0.3880 115° Southeast 461 531 27,800 -1,575 Descending FlightAware ADS-B
Mon 02:42:15 AM 41.9490 0.4940 110° East 454 522 26,600 -1,835 Descending FlightAware ADS-B
Mon 02:43:00 AM 41.9190 0.6110 109° East 440 506 25,200 -2,867 Descending FlightAware ADS-B
Mon 02:43:45 AM 41.8870 0.7340 109° East 442 509 22,300 -2,280 Descending FlightAware ADS-B
Mon 02:44:40 AM 41.8550 0.8590 109° East 423 487 21,400 -568 Descending FlightAware ADS-B
Mon 02:45:20 AM 41.8330 0.9430 109° East 423 487 21,400  Level FlightAware ADS-B
Mon 02:46:00 AM 41.8110 1.0270 109° East 423 487 21,400  Level FlightAware ADS-B
Mon 02:46:40 AM 41.7900 1.1120 108° East 423 487 21,400  Level FlightAware ADS-B
Mon 02:47:20 AM 41.7680 1.1960 109° East 423 487 21,400 -3,434 Level FlightAware ADS-B
Mon 02:48:05 AM 41.7310 1.3270 111° Southeast 14,200 -4,743 Descending FlightAware ADS-B
Mon 02:49:05 AM 41.6950 1.4640 109° East 383 441 13,100 -660 Descending FlightAware ADS-B
Mon 02:49:45 AM 41.6760 1.5400 108° East 383 441 13,100  Level FlightAware ADS-B
Mon 02:50:25 AM 41.6560 1.6160 109° East 383 441 13,100 -1,403 Level FlightAware ADS-B
Mon 02:53:00 AM 41.3971 1.9504 136° Southeast  Level Estimated
Mon 02:54:00 AM 41.2971 2.0785 136° Southeast  Level Estimated
Mon 02:55:00 AM 41.2971 2.0785 124° Southeast  Level Estimated
Mon 02:55:40 AM 41.5130 2.1420 124° Southeast 238 274 4,800  Level FlightAware ADS-B
Mon 02:56:05 AM 41.5040 2.1790 108° East 236 272 3,900 -1,527 Descending FlightAware ADS-B
Mon 02:56:35 AM 41.4900 2.2160 117° Southeast 234 269 3,400 -545 Descending FlightAware ADS-B
Mon 02:57:00 AM 41.4740 2.2460 125° Southeast 228 262 3,400  Level FlightAware ADS-B
Mon 02:57:30 AM 41.4540 2.2740 134° Southeast 203 234 3,400  Level FlightAware ADS-B
Mon 02:57:45 AM 41.4440 2.2880 134° Southeast 203 234 3,400 -900 Level FlightAware ADS-B
Mon 02:58:10 AM 41.4270 2.3080 139° Southeast 202 232 2,800 -1,371 Descending FlightAware ADS-B
Mon 02:58:20 AM 41.4170 2.3110 167° South 199 229 2,600 -1,000 Descending FlightAware ADS-B
Mon 02:58:40 AM 41.4000 2.3030 199° South 194 223 2,300 -686 Descending FlightAware ADS-B
Mon 02:58:55 AM 41.3880 2.2940 209° Southwest 198 228 2,200 -200 Descending FlightAware ADS-B
Mon 02:59:10 AM 41.3760 2.2860 207° Southwest 195 224 2,200  Level FlightAware ADS-B
Mon 02:59:35 AM 41.3610 2.2660 225° Southwest 179 206 2,200  Level FlightAware ADS-B
Mon 03:00:00 AM 41.3530 2.2430 245° Southwest 165 190 2,200 -429 Level FlightAware ADS-B
Mon 03:00:17 AM 41.3470 2.2250 246° West 169 194 1,900 -857 Descending FlightAware ADS-B
Mon 03:00:42 AM 41.3400 2.2040 246° West 158 182 1,600 -873 Descending FlightAware ADS-B
Mon 03:01:12 AM 41.3310 2.1780 245° Southwest 148 170 1,100 -933 Descending FlightAware ADS-B
Mon 03:01:27 AM 41.3270 2.1650 248° West 137 158 900 -667 Descending FlightAware ADS-B
Mon 03:01:57 AM 41.3190 2.1420 245° Southwest 141 162 600 -667 Descending FlightAware ADS-B
Mon 03:02:12 AM 41.3150 2.1310 244° Southwest 136 157 400 -750 Descending FlightAware ADS-B
Mon 03:02:37 AM 41.3080 2.1120 244° Southwest 133 153 100 -720 Descending FlightAware ADS-B
Mon 03:03:07 AM 41.3010 2.0910 246° West 134 154 -200 Descending FlightAware ADS-B

Login

Don't have an account? Register now (free) for customized features, flight alerts, and more!